Time;durP1;ratioP1;P1;durP2;ratioP2;P2;SDS_P1;SDS_P2;PMS_P1;PMS_P2;Temp;Humidity;BMP_temperature;BMP_pressure;BME280_temperature;BME280_humidity;BME280_pressure;Samples;Min_cycle;Max_cycle;Signal;HPM_P1;HPM_P2
2021/08/22 00:00:06;;;;;;;;;4.50;4.00;;;;;;;;5079405;28;46866;-78
2021/08/22 00:02:31;;;;;;;;;4.25;3.75;;;;;;;;5079471;28;46960;-78
2021/08/22 00:04:57;;;;;;;;;7.25;4.00;;;;;;;;5079388;28;47231;-78
2021/08/22 00:07:23;;;;;;;;;6.00;5.25;;;;;;;;5060871;28;47102;-78
2021/08/22 00:09:48;;;;;;;;;7.25;6.25;;;;;;;;5078909;28;47054;-78
2021/08/22 00:12:13;;;;;;;;;5.50;4.50;;;;;;;;5060668;28;46973;-78
2021/08/22 00:14:39;;;;;;;;;7.00;4.50;;;;;;;;5032475;28;1318615;-78
2021/08/22 00:17:04;;;;;;;;;4.00;4.00;;;;;;;;5080441;28;47034;-78
2021/08/22 00:19:30;;;;;;;;;5.00;4.75;;;;;;;;5061886;28;48852;-78
2021/08/22 00:21:55;;;;;;;;;7.50;4.25;;;;;;;;5080034;28;47030;-78
2021/08/22 00:24:20;;;;;;;;;5.75;4.50;;;;;;;;5061587;28;46982;-78
2021/08/22 00:26:46;;;;;;;;;3.50;3.50;;;;;;;;5067228;28;46802;-78
2021/08/22 00:29:11;;;;;;;;;6.50;5.00;;;;;;;;5079870;28;48006;-78
2021/08/22 00:31:36;;;;;;;;;5.25;4.25;;;;;;;;5080245;28;46797;-78
2021/08/22 00:34:01;;;;;;;;;4.75;4.00;;;;;;;;5061638;28;47081;-78
2021/08/22 00:36:27;;;;;;;;;5.25;4.50;;;;;;;;5080377;28;47004;-78
2021/08/22 00:38:52;;;;;;;;;5.50;5.50;;;;;;;;5079695;28;48042;-78
2021/08/22 00:41:18;;;;;;;;;5.25;5.00;;;;;;;;5079602;28;46908;-78
2021/08/22 00:43:46;;;;;;;;;6.00;5.25;;;;;;;;5078811;28;47102;-78
2021/08/22 00:46:12;;;;;;;;;5.00;4.50;;;;;;;;5080095;28;46879;-78
2021/08/22 00:48:47;;;;;;;;;6.00;4.50;;;;;;;;5079561;28;47961;-78
2021/08/22 00:51:14;;;;;;;;;4.75;4.75;;;;;;;;5079718;28;47059;-78
2021/08/22 00:53:39;;;;;;;;;5.25;5.00;;;;;;;;5079913;28;46939;-78
2021/08/22 00:56:05;;;;;;;;;7.50;4.50;;;;;;;;5079498;28;47173;-78
2021/08/22 00:58:31;;;;;;;;;7.00;6.00;;;;;;;;5079624;28;47088;-78
2021/08/22 01:00:58;;;;;;;;;7.00;5.25;;;;;;;;5079562;28;47070;-78
2021/08/22 01:03:29;;;;;;;;;6.25;4.25;;;;;;;;5079779;28;46914;-78
2021/08/22 01:05:57;;;;;;;;;6.00;5.75;;;;;;;;5079616;28;47150;-78
2021/08/22 01:08:29;;;;;;;;;5.25;5.00;;;;;;;;5079414;28;47981;-78
2021/08/22 01:11:00;;;;;;;;;5.00;3.75;;;;;;;;5079116;28;47013;-78
2021/08/22 01:13:31;;;;;;;;;8.00;7.00;;;;;;;;5079492;28;47092;-78
2021/08/22 01:15:58;;;;;;;;;6.00;6.00;;;;;;;;5079486;28;46786;-78
2021/08/22 01:18:25;;;;;;;;;5.00;5.00;;;;;;;;5079251;28;48088;-78
2021/08/22 01:21:11;;;;;;;;;5.75;4.25;;;;;;;;5079201;28;46901;-78
2021/08/22 01:23:51;;;;;;;;;5.25;5.00;;;;;;;;5060987;28;47045;-78
2021/08/22 01:26:18;;;;;;;;;6.50;4.75;;;;;;;;5079167;28;47027;-78
2021/08/22 01:28:44;;;;;;;;;4.00;4.00;;;;;;;;5079009;28;47281;-78
2021/08/22 01:31:12;;;;;;;;;6.00;4.00;;;;;;;;5060916;28;46831;-78
2021/08/22 01:33:39;;;;;;;;;5.00;4.75;;;;;;;;5079017;28;46880;-78
2021/08/22 01:36:04;;;;;;;;;4.00;4.00;;;;;;;;5079206;28;47280;-78
2021/08/22 01:38:30;;;;;;;;;5.00;5.00;;;;;;;;5078840;28;46974;-78
2021/08/22 01:40:56;;;;;;;;;9.75;5.75;;;;;;;;5078767;28;47498;-78
2021/08/22 01:43:22;;;;;;;;;5.50;5.50;;;;;;;;5060469;28;47091;-78
2021/08/22 01:45:51;;;;;;;;;5.75;5.75;;;;;;;;5079158;28;47155;-78
2021/08/22 01:48:17;;;;;;;;;6.75;5.50;;;;;;;;5078629;28;47033;-78
2021/08/22 01:50:42;;;;;;;;;7.50;5.25;;;;;;;;5078885;28;47420;-78
2021/08/22 01:53:08;;;;;;;;;7.75;6.00;;;;;;;;5060510;28;46899;-78
2021/08/22 01:55:33;;;;;;;;;5.75;5.25;;;;;;;;5078548;28;46918;-78
2021/08/22 01:57:58;;;;;;;;;4.00;3.75;;;;;;;;5078599;28;47740;-79
2021/08/22 02:00:24;;;;;;;;;6.75;5.50;;;;;;;;5078718;28;47078;-78
2021/08/22 02:02:54;;;;;;;;;5.00;3.50;;;;;;;;5078637;28;47006;-78
2021/08/22 02:05:19;;;;;;;;;7.00;4.25;;;;;;;;5078965;28;46743;-78
2021/08/22 02:07:45;;;;;;;;;3.25;3.25;;;;;;;;5060168;28;48101;-78
2021/08/22 02:10:10;;;;;;;;;4.75;3.75;;;;;;;;5078319;28;46889;-78
2021/08/22 02:12:36;;;;;;;;;6.00;5.75;;;;;;;;5078505;28;46809;-78
2021/08/22 02:15:01;;;;;;;;;3.75;3.00;;;;;;;;5060235;28;47364;-78
2021/08/22 02:17:30;;;;;;;;;5.25;5.00;;;;;;;;5078299;28;46828;-78
2021/08/22 02:19:56;;;;;;;;;3.25;3.25;;;;;;;;5078579;28;47101;-78
2021/08/22 02:22:21;;;;;;;;;3.25;3.25;;;;;;;;5078370;28;46939;-78
2021/08/22 02:24:47;;;;;;;;;5.00;4.00;;;;;;;;5078437;28;46863;-78
2021/08/22 02:27:12;;;;;;;;;6.50;5.00;;;;;;;;5064596;28;46919;-78
2021/08/22 02:29:45;;;;;;;;;5.00;5.00;;;;;;;;5078434;28;46907;-78
2021/08/22 02:32:10;;;;;;;;;4.75;4.25;;;;;;;;5078443;28;46990;-78
2021/08/22 02:34:36;;;;;;;;;6.25;5.00;;;;;;;;5078405;28;46816;-78
2021/08/22 02:37:01;;;;;;;;;3.75;3.00;;;;;;;;5077994;28;47016;-78
2021/08/22 02:39:26;;;;;;;;;5.25;3.00;;;;;;;;5078089;28;46797;-78
2021/08/22 02:41:52;;;;;;;;;3.75;3.25;;;;;;;;5078032;28;46926;-78
2021/08/22 02:44:17;;;;;;;;;5.25;3.75;;;;;;;;5078422;28;46994;-78
2021/08/22 02:46:42;;;;;;;;;3.00;3.00;;;;;;;;5059783;28;48649;-78
2021/08/22 02:49:07;;;;;;;;;5.00;4.25;;;;;;;;5078137;28;47007;-78
2021/08/22 02:51:33;;;;;;;;;6.00;3.00;;;;;;;;5078029;28;47054;-78
2021/08/22 02:53:58;;;;;;;;;4.00;3.75;;;;;;;;5059987;28;46896;-78
2021/08/22 02:56:23;;;;;;;;;4.75;3.75;;;;;;;;5077549;28;47686;-78
2021/08/22 02:58:49;;;;;;;;;4.50;4.00;;;;;;;;5077965;28;46932;-78
2021/08/22 03:01:14;;;;;;;;;4.00;2.75;;;;;;;;5077951;28;46842;-78
2021/08/22 03:03:40;;;;;;;;;5.75;4.50;;;;;;;;5078051;28;46805;-78
2021/08/22 03:06:05;;;;;;;;;3.25;3.25;;;;;;;;5078258;28;46865;-78
2021/08/22 03:08:30;;;;;;;;;5.50;4.50;;;;;;;;5081135;28;46968;-78
2021/08/22 03:10:56;;;;;;;;;5.25;5.25;;;;;;;;5081230;28;47067;-78
2021/08/22 03:13:21;;;;;;;;;4.75;4.00;;;;;;;;5081406;28;46938;-78
2021/08/22 03:15:46;;;;;;;;;5.00;4.25;;;;;;;;5080975;28;48267;-78
2021/08/22 03:18:12;;;;;;;;;3.25;3.00;;;;;;;;5081447;28;46952;-78
2021/08/22 03:20:37;;;;;;;;;3.25;3.00;;;;;;;;5081197;28;46950;-78
2021/08/22 03:23:02;;;;;;;;;4.75;4.00;;;;;;;;5081453;28;47296;-78
2021/08/22 03:25:28;;;;;;;;;3.00;3.00;;;;;;;;5060078;28;47286;-78
2021/08/22 03:27:53;;;;;;;;;5.75;3.00;;;;;;;;5069373;28;46895;-78
2021/08/22 03:30:18;;;;;;;;;4.00;4.00;;;;;;;;5081104;28;46927;-78
2021/08/22 03:32:44;;;;;;;;;5.00;5.00;;;;;;;;5081211;28;47297;-78
2021/08/22 03:35:09;;;;;;;;;7.75;4.75;;;;;;;;5062504;28;49491;-78
2021/08/22 03:37:34;;;;;;;;;7.00;4.00;;;;;;;;5080895;28;46883;-78
2021/08/22 03:40:00;;;;;;;;;7.00;4.25;;;;;;;;5062414;28;46864;-78
2021/08/22 03:42:25;;;;;;;;;3.00;2.00;;;;;;;;5062817;28;47300;-78
2021/08/22 03:44:50;;;;;;;;;5.50;3.50;;;;;;;;5080784;28;47215;-78
2021/08/22 03:47:16;;;;;;;;;5.00;3.50;;;;;;;;5080748;28;47070;-78
2021/08/22 03:49:41;;;;;;;;;5.00;3.25;;;;;;;;5080867;28;46919;-78
2021/08/22 03:52:06;;;;;;;;;6.50;4.25;;;;;;;;5081057;28;46735;-78
2021/08/22 03:54:31;;;;;;;;;4.50;3.50;;;;;;;;5080460;28;46974;-78
2021/08/22 03:56:57;;;;;;;;;7.00;5.50;;;;;;;;5080570;28;46775;-78
2021/08/22 03:59:22;;;;;;;;;4.50;4.50;;;;;;;;5080477;28;46820;-78
2021/08/22 04:01:47;;;;;;;;;8.50;6.00;;;;;;;;5080884;28;47385;-78
2021/08/22 04:04:13;;;;;;;;;5.75;5.50;;;;;;;;5080331;28;46900;-78
2021/08/22 04:06:47;;;;;;;;;8.25;6.25;;;;;;;;5080573;28;46805;-78
2021/08/22 04:09:12;;;;;;;;;6.75;6.75;;;;;;;;5080049;28;47251;-77
2021/08/22 04:11:38;;;;;;;;;4.50;4.25;;;;;;;;5080820;28;46848;-78
2021/08/22 04:14:03;;;;;;;;;6.50;5.50;;;;;;;;5061733;28;48581;-78
2021/08/22 04:16:29;;;;;;;;;4.50;4.00;;;;;;;;5080256;28;46781;-78
2021/08/22 04:18:54;;;;;;;;;8.00;5.25;;;;;;;;5079044;28;46789;-78
2021/08/22 04:21:19;;;;;;;;;5.00;5.00;;;;;;;;5080368;28;46800;-78
2021/08/22 04:23:45;;;;;;;;;9.75;5.25;;;;;;;;5080264;28;47994;-78
2021/08/22 04:26:10;;;;;;;;;5.00;5.00;;;;;;;;5071704;28;46876;-78
2021/08/22 04:28:36;;;;;;;;;10.25;5.00;;;;;;;;5075176;28;46936;-78
2021/08/22 04:31:01;;;;;;;;;4.50;4.50;;;;;;;;5080479;28;47172;-78
2021/08/22 04:33:28;;;;;;;;;4.00;3.00;;;;;;;;5079766;28;47140;-78
2021/08/22 04:35:53;;;;;;;;;6.75;4.25;;;;;;;;5080050;28;46992;-78
2021/08/22 04:38:19;;;;;;;;;4.75;3.75;;;;;;;;5080062;28;46919;-78
2021/08/22 04:40:44;;;;;;;;;5.25;4.00;;;;;;;;5079826;28;47292;-78
2021/08/22 04:43:09;;;;;;;;;5.00;4.00;;;;;;;;5079721;28;47870;-78
2021/08/22 04:45:35;;;;;;;;;4.00;4.00;;;;;;;;5079944;28;46965;-78
2021/08/22 04:48:00;;;;;;;;;5.25;4.00;;;;;;;;5079738;28;46848;-78
2021/08/22 04:50:25;;;;;;;;;2.00;2.00;;;;;;;;5080094;28;46957;-78
2021/08/22 04:52:51;;;;;;;;;5.00;4.25;;;;;;;;5079827;28;47956;-78
2021/08/22 04:55:16;;;;;;;;;7.75;5.75;;;;;;;;5079486;28;46731;-78
2021/08/22 04:57:41;;;;;;;;;4.75;3.25;;;;;;;;5079436;28;47059;-78
2021/08/22 05:00:07;;;;;;;;;7.50;5.00;;;;;;;;5061562;28;47017;-78
2021/08/22 05:02:32;;;;;;;;;5.00;5.00;;;;;;;;5079431;28;47946;-78
2021/08/22 05:04:58;;;;;;;;;5.50;4.75;;;;;;;;5079595;28;46987;-78
2021/08/22 05:07:23;;;;;;;;;6.50;4.50;;;;;;;;5079496;28;46900;-78
2021/08/22 05:09:48;;;;;;;;;6.25;4.00;;;;;;;;5079593;28;46784;-78
2021/08/22 05:12:14;;;;;;;;;6.50;4.00;;;;;;;;5079274;28;46916;-78
2021/08/22 05:14:39;;;;;;;;;6.25;3.75;;;;;;;;5079399;28;46777;-78
2021/08/22 05:17:04;;;;;;;;;6.25;4.25;;;;;;;;5079413;28;46997;-78
2021/08/22 05:19:30;;;;;;;;;5.25;4.75;;;;;;;;5079520;28;46804;-78
2021/08/22 05:21:55;;;;;;;;;3.50;3.50;;;;;;;;5079329;28;47090;-77
2021/08/22 05:24:20;;;;;;;;;7.00;5.50;;;;;;;;5079004;28;46977;-77
2021/08/22 05:26:46;;;;;;;;;5.25;4.00;;;;;;;;5079151;28;47030;-77
2021/08/22 05:29:11;;;;;;;;;6.00;4.25;;;;;;;;5078581;28;47120;-78
2021/08/22 05:31:37;;;;;;;;;3.75;3.75;;;;;;;;5079138;28;47901;-78
2021/08/22 05:34:02;;;;;;;;;5.00;5.00;;;;;;;;5078857;28;46990;-78
2021/08/22 05:36:27;;;;;;;;;6.25;5.00;;;;;;;;5060752;28;47150;-78
2021/08/22 05:38:53;;;;;;;;;4.75;4.25;;;;;;;;5078996;28;46927;-78
2021/08/22 05:41:19;;;;;;;;;4.50;3.75;;;;;;;;5060452;28;47151;-78
2021/08/22 05:43:44;;;;;;;;;5.50;4.00;;;;;;;;5078713;28;47046;-78
2021/08/22 05:46:10;;;;;;;;;8.25;4.75;;;;;;;;5079134;28;46918;-78
2021/08/22 05:48:35;;;;;;;;;5.25;4.00;;;;;;;;5078924;28;46995;-78
2021/08/22 05:51:01;;;;;;;;;6.50;4.25;;;;;;;;5078878;28;47025;-78
2021/08/22 05:53:28;;;;;;;;;8.25;4.25;;;;;;;;5078695;28;46918;-78
2021/08/22 05:55:54;;;;;;;;;7.50;3.75;;;;;;;;5078703;28;46820;-78
2021/08/22 05:58:19;;;;;;;;;4.50;3.75;;;;;;;;5078861;28;46903;-78
2021/08/22 06:00:44;;;;;;;;;3.50;3.50;;;;;;;;5078720;28;48172;-77
2021/08/22 06:03:10;;;;;;;;;5.25;5.00;;;;;;;;5078577;28;46851;-78
2021/08/22 06:05:35;;;;;;;;;5.00;5.00;;;;;;;;5078719;28;46802;-78
2021/08/22 06:08:00;;;;;;;;;6.00;5.00;;;;;;;;5060477;28;47225;-78
2021/08/22 06:10:26;;;;;;;;;6.50;4.00;;;;;;;;5059995;28;46996;-78
2021/08/22 06:12:52;;;;;;;;;3.25;2.75;;;;;;;;5078437;28;47363;-77
2021/08/22 06:15:18;;;;;;;;;4.75;3.50;;;;;;;;5078584;28;47035;-78
2021/08/22 06:17:43;;;;;;;;;4.50;3.50;;;;;;;;5078712;28;47227;-78
2021/08/22 06:20:09;;;;;;;;;3.75;3.75;;;;;;;;5078569;28;47120;-78
2021/08/22 06:22:34;;;;;;;;;5.25;4.25;;;;;;;;5078271;28;47104;-78
2021/08/22 06:24:59;;;;;;;;;5.00;3.25;;;;;;;;5078348;28;46892;-78
2021/08/22 06:27:24;;;;;;;;;5.00;3.25;;;;;;;;5064777;28;47154;-78
2021/08/22 06:29:50;;;;;;;;;4.75;2.25;;;;;;;;5078410;28;46999;-78
2021/08/22 06:32:15;;;;;;;;;3.25;2.75;;;;;;;;5059891;28;47133;-78
2021/08/22 06:34:40;;;;;;;;;5.25;3.50;;;;;;;;5078189;28;46993;-77
2021/08/22 06:37:06;;;;;;;;;5.00;4.00;;;;;;;;5059912;28;47342;-77
2021/08/22 06:39:32;;;;;;;;;3.50;3.00;;;;;;;;5078212;28;46966;-78
2021/08/22 06:41:58;;;;;;;;;5.25;3.75;;;;;;;;5080046;28;47153;-78
2021/08/22 06:44:23;;;;;;;;;4.00;3.25;;;;;;;;5081656;28;46836;-78
2021/08/22 06:46:48;;;;;;;;;5.25;3.25;;;;;;;;5063657;28;46898;-78
2021/08/22 06:49:14;;;;;;;;;1.50;1.50;;;;;;;;5081605;28;47958;-78
2021/08/22 06:51:40;;;;;;;;;4.50;3.00;;;;;;;;5081574;28;47173;-78
2021/08/22 06:54:05;;;;;;;;;2.50;2.50;;;;;;;;5081531;28;46785;-78
2021/08/22 06:56:32;;;;;;;;;2.75;2.50;;;;;;;;5081631;28;46738;-78
2021/08/22 06:58:57;;;;;;;;;4.25;3.00;;;;;;;;5081462;28;46940;-78
2021/08/22 07:01:22;;;;;;;;;4.50;4.25;;;;;;;;5081493;28;47136;-78
2021/08/22 07:03:48;;;;;;;;;3.50;3.00;;;;;;;;5063202;28;47015;-78
2021/08/22 07:06:13;;;;;;;;;3.75;3.00;;;;;;;;5081517;28;46984;-78
2021/08/22 07:08:38;;;;;;;;;5.75;3.75;;;;;;;;5081303;28;47790;-78
2021/08/22 07:11:04;;;;;;;;;4.75;2.00;;;;;;;;5062726;28;46920;-78
2021/08/22 07:13:29;;;;;;;;;4.25;3.00;;;;;;;;5081281;28;46880;-78
2021/08/22 07:15:54;;;;;;;;;3.00;3.00;;;;;;;;5081334;28;47082;-78
2021/08/22 07:18:20;;;;;;;;;4.25;4.25;;;;;;;;5081234;28;47873;-78
2021/08/22 07:20:45;;;;;;;;;4.25;3.75;;;;;;;;5081129;28;47018;-78
2021/08/22 07:23:11;;;;;;;;;2.75;2.25;;;;;;;;5081253;28;46996;-78
2021/08/22 07:25:36;;;;;;;;;2.75;2.75;;;;;;;;5077616;28;46836;-78
2021/08/22 07:28:01;;;;;;;;;6.25;3.00;;;;;;;;5071489;28;46879;-78
2021/08/22 07:30:27;;;;;;;;;3.50;2.00;;;;;;;;5081085;28;46881;-78
2021/08/22 07:32:53;;;;;;;;;6.25;3.00;;;;;;;;5081117;28;47029;-78
2021/08/22 07:35:18;;;;;;;;;6.00;3.25;;;;;;;;5081234;28;46942;-78
2021/08/22 07:37:43;;;;;;;;;3.25;2.75;;;;;;;;5080896;28;47926;-78
2021/08/22 07:40:09;;;;;;;;;3.50;3.00;;;;;;;;5080654;28;46743;-78
2021/08/22 07:42:35;;;;;;;;;3.25;2.00;;;;;;;;5080865;28;46958;-78
2021/08/22 07:45:01;;;;;;;;;6.00;3.50;;;;;;;;5062702;28;47025;-78
2021/08/22 07:47:26;;;;;;;;;3.00;3.00;;;;;;;;5080847;28;47782;-78
2021/08/22 07:49:51;;;;;;;;;3.75;2.00;;;;;;;;5080693;28;47021;-78
2021/08/22 07:52:17;;;;;;;;;3.00;2.50;;;;;;;;5080670;28;46879;-78
2021/08/22 07:54:42;;;;;;;;;4.00;3.00;;;;;;;;5080485;28;46986;-78
2021/08/22 07:57:07;;;;;;;;;3.00;3.00;;;;;;;;5062231;28;49220;-78
2021/08/22 07:59:33;;;;;;;;;1.25;1.25;;;;;;;;5080479;28;46844;-78
2021/08/22 08:01:58;;;;;;;;;4.25;3.25;;;;;;;;5080644;28;46922;-78
2021/08/22 08:04:23;;;;;;;;;3.75;2.25;;;;;;;;5062471;28;47428;-78
2021/08/22 08:06:49;;;;;;;;;2.00;2.00;;;;;;;;5080449;28;47876;-78
2021/08/22 08:09:14;;;;;;;;;2.00;1.50;;;;;;;;5080091;28;47091;-78
2021/08/22 08:11:39;;;;;;;;;2.75;1.50;;;;;;;;5062251;28;46996;-78
2021/08/22 08:14:05;;;;;;;;;2.00;2.00;;;;;;;;5080240;28;46887;-78
2021/08/22 08:16:31;;;;;;;;;4.50;2.00;;;;;;;;5080093;28;46933;-78
2021/08/22 08:18:56;;;;;;;;;1.00;1.00;;;;;;;;5080244;28;46933;-78
2021/08/22 08:21:21;;;;;;;;;4.00;2.00;;;;;;;;5080358;28;46815;-78
2021/08/22 08:23:47;;;;;;;;;2.00;1.00;;;;;;;;5080261;28;46789;-78
2021/08/22 08:26:12;;;;;;;;;2.00;2.00;;;;;;;;5080131;28;47927;-78
2021/08/22 08:28:38;;;;;;;;;2.00;1.00;;;;;;;;5079876;28;46922;-78
2021/08/22 08:31:03;;;;;;;;;2.00;2.00;;;;;;;;5080260;28;47013;-78
2021/08/22 08:33:28;;;;;;;;;2.50;2.00;;;;;;;;5080087;28;47226;-78
2021/08/22 08:35:54;;;;;;;;;2.00;1.00;;;;;;;;5061609;28;48077;-78
2021/08/22 08:38:19;;;;;;;;;2.00;2.00;;;;;;;;5079853;28;46864;-78
2021/08/22 08:40:45;;;;;;;;;2.00;1.25;;;;;;;;5080000;28;46788;-78
2021/08/22 08:43:11;;;;;;;;;3.00;2.00;;;;;;;;5061678;28;47033;-78
2021/08/22 08:45:42;;;;;;;;;1.25;1.00;;;;;;;;5079979;28;47006;-78
2021/08/22 08:48:07;;;;;;;;;2.00;2.00;;;;;;;;5079820;28;46854;-78
2021/08/22 08:50:36;;;;;;;;;1.75;1.75;;;;;;;;5080098;28;47078;-78
2021/08/22 08:53:05;;;;;;;;;3.75;2.00;;;;;;;;5080158;28;46834;-78
2021/08/22 08:55:43;;;;;;;;;2.00;2.00;;;;;;;;5079374;28;46995;-78
2021/08/22 08:58:08;;;;;;;;;2.75;1.00;;;;;;;;5079465;28;46829;-78
2021/08/22 09:00:35;;;;;;;;;1.75;1.75;;;;;;;;5079705;28;46852;-78
2021/08/22 09:03:00;;;;;;;;;1.00;1.00;;;;;;;;5079894;28;46750;-77
2021/08/22 09:05:28;;;;;;;;;2.00;2.00;;;;;;;;5078706;28;47991;-79
2021/08/22 09:07:53;;;;;;;;;1.00;1.00;;;;;;;;5079302;28;47126;-78
2021/08/22 09:10:37;;;;;;;;;1.00;1.00;;;;;;;;5079272;28;46962;-78
2021/08/22 09:13:21;;;;;;;;;2.75;2.00;;;;;;;;5079620;28;47013;-78
2021/08/22 09:15:55;;;;;;;;;5.00;2.00;;;;;;;;5079279;28;47020;-78
2021/08/22 09:18:38;;;;;;;;;1.75;1.25;;;;;;;;5079343;28;46864;-78
2021/08/22 09:21:10;;;;;;;;;1.00;1.00;;;;;;;;5079199;28;46852;-79
2021/08/22 09:23:47;;;;;;;;;0.75;0.75;;;;;;;;5061109;28;47325;-78
2021/08/22 09:26:31;;;;;;;;;4.00;2.25;;;;;;;;5079255;28;47888;-79
2021/08/22 09:29:15;;;;;;;;;2.75;2.75;;;;;;;;5060587;28;46838;-79
2021/08/22 09:32:06;;;;;;;;;1.75;1.75;;;;;;;;5079231;28;47041;-78
2021/08/22 09:34:50;;;;;;;;;1.00;1.00;;;;;;;;5079157;28;46861;-78
2021/08/22 09:37:42;;;;;;;;;1.50;1.50;;;;;;;;5078913;28;47774;-78
2021/08/22 09:40:22;;;;;;;;;2.50;2.50;;;;;;;;5037412;28;47165;-79
2021/08/22 09:43:06;;;;;;;;;3.00;1.00;;;;;;;;5079107;28;47149;-79
2021/08/22 09:45:50;;;;;;;;;2.00;2.00;;;;;;;;5079195;28;47042;-78
2021/08/22 09:48:27;;;;;;;;;1.50;1.00;;;;;;;;5078649;28;46948;-78
2021/08/22 09:51:09;;;;;;;;;2.25;1.00;;;;;;;;5060607;28;47016;-79
2021/08/22 09:53:46;;;;;;;;;2.00;2.00;;;;;;;;5079097;28;46770;-79
2021/08/22 09:56:23;;;;;;;;;3.25;0.25;;;;;;;;5078909;28;46975;-78
2021/08/22 09:58:51;;;;;;;;;2.75;2.00;;;;;;;;5078571;28;46888;-78
2021/08/22 10:01:46;;;;;;;;;2.00;1.00;;;;;;;;5060440;28;46919;-78
2021/08/22 10:04:14;;;;;;;;;2.00;1.75;;;;;;;;4972367;28;47177;-78
2021/08/22 10:06:51;;;;;;;;;2.75;2.00;;;;;;;;5079067;28;46865;-79
2021/08/22 10:09:26;;;;;;;;;2.50;2.00;;;;;;;;5059918;28;47176;-78
2021/08/22 10:11:55;;;;;;;;;2.25;1.00;;;;;;;;5078792;28;46905;-78
2021/08/22 10:14:21;;;;;;;;;1.00;1.00;;;;;;;;5078298;28;46885;-78
2021/08/22 10:16:47;;;;;;;;;0.25;0.00;;;;;;;;5082021;28;46917;-78
2021/08/22 10:19:12;;;;;;;;;0.75;0.00;;;;;;;;5081980;28;47723;-78
2021/08/22 10:21:38;;;;;;;;;1.50;1.00;;;;;;;;5082347;28;46813;-78
2021/08/22 10:24:09;;;;;;;;;1.00;1.00;;;;;;;;5081850;28;46865;-78
2021/08/22 10:26:44;;;;;;;;;2.75;1.00;;;;;;;;5070671;28;47031;-78
2021/08/22 10:29:11;;;;;;;;;1.00;1.00;;;;;;;;5081677;28;47020;-78
2021/08/22 10:31:48;;;;;;;;;0.00;0.00;;;;;;;;5082049;28;47014;-78
2021/08/22 10:34:14;;;;;;;;;0.00;0.00;;;;;;;;5082313;28;46914;-78
2021/08/22 10:36:39;;;;;;;;;0.00;0.00;;;;;;;;5082146;28;46742;-80
2021/08/22 10:39:25;;;;;;;;;0.00;0.00;;;;;;;;5081684;28;46881;-79
2021/08/22 10:41:54;;;;;;;;;2.00;0.00;;;;;;;;5081889;28;46747;-78
2021/08/22 10:44:35;;;;;;;;;0.00;0.00;;;;;;;;5081975;28;46882;-79
2021/08/22 10:47:01;;;;;;;;;0.00;0.00;;;;;;;;5081888;28;47299;-79
2021/08/22 10:49:52;;;;;;;;;1.00;0.75;;;;;;;;5081711;28;47729;-79
2021/08/22 10:52:23;;;;;;;;;1.00;1.00;;;;;;;;5077473;27;47138;-78
2021/08/22 10:55:07;;;;;;;;;1.25;1.00;;;;;;;;5081464;28;46862;-79
2021/08/22 10:57:44;;;;;;;;;0.00;0.00;;;;;;;;5081631;28;47041;-78
2021/08/22 11:00:21;;;;;;;;;1.75;1.00;;;;;;;;5081584;28;47624;-78
2021/08/22 11:02:47;;;;;;;;;1.75;1.75;;;;;;;;5081401;28;47056;-79
2021/08/22 11:05:13;;;;;;;;;0.50;0.00;;;;;;;;5081658;28;46754;-78
2021/08/22 11:07:38;;;;;;;;;1.00;1.00;;;;;;;;5081490;28;47009;-79
2021/08/22 11:10:04;;;;;;;;;2.00;1.00;;;;;;;;5081134;28;47054;-78
2021/08/22 11:12:33;;;;;;;;;1.00;1.00;;;;;;;;5081156;28;46935;-78
2021/08/22 11:15:00;;;;;;;;;0.50;0.00;;;;;;;;5081295;28;46960;-78
2021/08/22 11:17:26;;;;;;;;;2.25;1.25;;;;;;;;5081246;28;47234;-78
2021/08/22 11:19:52;;;;;;;;;0.00;0.00;;;;;;;;5081308;28;47101;-78
2021/08/22 11:22:25;;;;;;;;;0.50;0.50;;;;;;;;5080984;28;46819;-78
2021/08/22 11:24:51;;;;;;;;;1.00;1.00;;;;;;;;5081038;28;46927;-79
2021/08/22 11:27:20;;;;;;;;;0.75;0.75;;;;;;;;5049268;28;47335;-79
2021/08/22 11:29:52;;;;;;;;;0.25;0.25;;;;;;;;5080956;28;46876;-79
2021/08/22 11:32:18;;;;;;;;;1.00;1.00;;;;;;;;5062534;28;47065;-79
2021/08/22 11:34:43;;;;;;;;;1.50;1.50;;;;;;;;5081065;28;46971;-78
2021/08/22 11:37:15;;;;;;;;;2.00;1.00;;;;;;;;5081205;28;47021;-78
2021/08/22 11:39:41;;;;;;;;;1.00;1.00;;;;;;;;5080675;28;47079;-79
2021/08/22 11:42:06;;;;;;;;;0.00;0.00;;;;;;;;5080761;28;46864;-79
2021/08/22 11:44:31;;;;;;;;;1.00;1.00;;;;;;;;5080749;28;46979;-78
2021/08/22 11:46:57;;;;;;;;;2.00;1.00;;;;;;;;5062539;28;46824;-79
2021/08/22 11:49:24;;;;;;;;;0.00;0.00;;;;;;;;5080945;28;47173;-79
2021/08/22 11:51:53;;;;;;;;;1.00;1.00;;;;;;;;5080657;28;46877;-79
2021/08/22 11:54:19;;;;;;;;;1.25;1.25;;;;;;;;5080561;28;47021;-78
2021/08/22 11:56:45;;;;;;;;;1.00;1.00;;;;;;;;5080717;28;47010;-79
2021/08/22 11:59:25;;;;;;;;;2.25;1.00;;;;;;;;5080550;28;46959;-79
2021/08/22 12:02:10;;;;;;;;;1.50;1.00;;;;;;;;5080617;28;46816;-78
2021/08/22 12:04:36;;;;;;;;;1.75;1.25;;;;;;;;5080419;28;46907;-78
2021/08/22 12:07:01;;;;;;;;;1.25;1.25;;;;;;;;5080731;28;47357;-78
2021/08/22 12:09:27;;;;;;;;;3.00;1.00;;;;;;;;5079967;28;47212;-78
2021/08/22 12:11:53;;;;;;;;;1.00;1.00;;;;;;;;5080527;28;47005;-78
2021/08/22 12:14:19;;;;;;;;;1.75;1.75;;;;;;;;5080079;28;47000;-78
2021/08/22 12:16:55;;;;;;;;;1.00;1.00;;;;;;;;5080662;28;46900;-79
2021/08/22 12:19:21;;;;;;;;;2.50;2.00;;;;;;;;5080243;28;47021;-78
2021/08/22 12:21:47;;;;;;;;;2.50;1.25;;;;;;;;5080291;28;47038;-78
2021/08/22 12:24:20;;;;;;;;;2.50;1.00;;;;;;;;5079922;28;47095;-78
2021/08/22 12:26:52;;;;;;;;;1.00;1.00;;;;;;;;5067318;28;47278;-78
2021/08/22 12:29:24;;;;;;;;;1.00;1.00;;;;;;;;5067354;28;47887;-78
2021/08/22 12:31:52;;;;;;;;;1.00;1.00;;;;;;;;5061823;28;46928;-78
2021/08/22 12:34:17;;;;;;;;;0.25;0.25;;;;;;;;5080159;28;47139;-78
2021/08/22 12:36:43;;;;;;;;;2.00;1.00;;;;;;;;5061879;28;46846;-78
2021/08/22 12:39:10;;;;;;;;;0.25;0.25;;;;;;;;5060225;28;49504;-78
2021/08/22 12:41:48;;;;;;;;;3.00;1.00;;;;;;;;5079854;28;46989;-78
2021/08/22 12:44:24;;;;;;;;;1.00;1.00;;;;;;;;5080091;28;46976;-78
2021/08/22 12:46:50;;;;;;;;;1.50;1.50;;;;;;;;5080067;28;46746;-78
2021/08/22 12:49:16;;;;;;;;;2.00;1.00;;;;;;;;5061505;28;48012;-78
2021/08/22 12:51:46;;;;;;;;;2.00;1.00;;;;;;;;5056800;28;46924;-78
2021/08/22 12:54:11;;;;;;;;;1.25;1.25;;;;;;;;5071368;28;46972;-78
2021/08/22 12:56:36;;;;;;;;;1.00;0.50;;;;;;;;5061534;28;47035;-78
2021/08/22 12:59:02;;;;;;;;;1.25;1.25;;;;;;;;5079630;28;47001;-78
2021/08/22 13:01:27;;;;;;;;;3.00;1.00;;;;;;;;5079509;27;46974;-78
2021/08/22 13:03:55;;;;;;;;;3.50;1.00;;;;;;;;5079738;28;47388;-78
2021/08/22 13:06:20;;;;;;;;;2.50;1.00;;;;;;;;5079734;28;47265;-78
2021/08/22 13:08:45;;;;;;;;;1.00;1.00;;;;;;;;5079177;28;47013;-78
2021/08/22 13:11:12;;;;;;;;;1.75;0.75;;;;;;;;5079433;28;46892;-79
2021/08/22 13:13:38;;;;;;;;;2.00;2.00;;;;;;;;5061081;28;46995;-78
2021/08/22 13:16:04;;;;;;;;;1.00;1.00;;;;;;;;5057719;28;47243;-77
2021/08/22 13:18:33;;;;;;;;;3.00;1.25;;;;;;;;5059295;28;47876;-78
2021/08/22 13:21:01;;;;;;;;;0.75;0.75;;;;;;;;5058777;28;47041;-78
2021/08/22 13:23:27;;;;;;;;;1.75;1.00;;;;;;;;5059183;28;46979;-78
2021/08/22 13:25:53;;;;;;;;;0.25;0.25;;;;;;;;5053175;28;46943;-78
2021/08/22 13:28:18;;;;;;;;;0.00;0.00;;;;;;;;5051510;28;47892;-78
2021/08/22 13:30:43;;;;;;;;;0.00;0.00;;;;;;;;5059032;28;46978;-78
2021/08/22 13:33:10;;;;;;;;;1.00;1.00;;;;;;;;5059013;28;47034;-78
2021/08/22 13:35:36;;;;;;;;;0.00;0.00;;;;;;;;5059048;28;47197;-78
2021/08/22 13:38:01;;;;;;;;;1.00;1.00;;;;;;;;5057427;28;47909;-78
2021/08/22 13:40:26;;;;;;;;;0.75;0.75;;;;;;;;5058278;28;46982;-79
2021/08/22 13:42:52;;;;;;;;;0.75;0.75;;;;;;;;5058872;28;46865;-78
2021/08/22 13:45:18;;;;;;;;;3.00;1.00;;;;;;;;5058740;28;46731;-78
2021/08/22 13:47:43;;;;;;;;;0.75;0.00;;;;;;;;5057126;28;47205;-78
2021/08/22 13:50:08;;;;;;;;;1.25;0.50;;;;;;;;5058081;28;46905;-78
2021/08/22 13:52:34;;;;;;;;;1.00;1.00;;;;;;;;5057344;28;46844;-78
2021/08/22 13:54:59;;;;;;;;;1.25;1.25;;;;;;;;5058428;28;46870;-78
2021/08/22 13:57:24;;;;;;;;;1.00;1.00;;;;;;;;5058321;28;47627;-78
2021/08/22 13:59:50;;;;;;;;;3.00;0.00;;;;;;;;5058386;28;46968;-79
2021/08/22 14:02:15;;;;;;;;;1.00;0.25;;;;;;;;5057109;28;46900;-78
2021/08/22 14:04:40;;;;;;;;;1.50;1.25;;;;;;;;5057279;28;47225;-78
2021/08/22 14:07:06;;;;;;;;;0.50;0.50;;;;;;;;5058377;28;47122;-78
2021/08/22 14:09:31;;;;;;;;;1.00;1.00;;;;;;;;5056636;28;46978;-78
2021/08/22 14:11:56;;;;;;;;;1.75;1.00;;;;;;;;5058415;28;47094;-78
2021/08/22 14:14:22;;;;;;;;;1.50;1.50;;;;;;;;5059396;28;47127;-78
2021/08/22 14:16:47;;;;;;;;;1.25;1.00;;;;;;;;5078639;28;47022;-78
2021/08/22 14:19:12;;;;;;;;;1.00;1.00;;;;;;;;5078435;28;47047;-78
2021/08/22 14:21:37;;;;;;;;;1.75;0.75;;;;;;;;5078594;28;46895;-78
2021/08/22 14:24:04;;;;;;;;;1.00;1.00;;;;;;;;5078315;28;46930;-78
2021/08/22 14:26:29;;;;;;;;;2.00;1.00;;;;;;;;5067665;28;48055;-78
2021/08/22 14:28:55;;;;;;;;;0.50;0.50;;;;;;;;5075813;28;47005;-78
2021/08/22 14:31:20;;;;;;;;;1.00;1.00;;;;;;;;5078552;28;46895;-77
2021/08/22 14:33:45;;;;;;;;;1.00;1.00;;;;;;;;5060141;28;46963;-79
2021/08/22 14:36:11;;;;;;;;;1.00;1.00;;;;;;;;5078391;28;48272;-78
2021/08/22 14:38:36;;;;;;;;;1.00;1.00;;;;;;;;5059557;28;47388;-78
2021/08/22 14:41:01;;;;;;;;;1.00;1.00;;;;;;;;5078336;28;46951;-78
2021/08/22 14:43:27;;;;;;;;;2.00;0.00;;;;;;;;5077990;28;47126;-79